Time;durP1;ratioP1;P1;durP2;ratioP2;P2;SDS_P1;SDS_P2;PMS_P1;PMS_P2;Temp;Humidity;BMP_temperature;BMP_pressure;BME280_temperature;BME280_humidity;BME280_pressure;Samples;Min_cycle;Max_cycle;Signal;HPM_P1;HPM_P2
2022/10/27 00:00:24;;;;;;;;;;;;;;;6.53;92.08;101286.27;85862;1300;99109;-58
2022/10/27 00:02:52;;;;;;;;;;;;;;;6.57;92.12;101282.91;85874;1300;87159;-58
2022/10/27 00:04:59;;;;;;;;;;;;;;;6.56;92.01;101283.86;85853;1301;95728;-57
2022/10/27 00:07:06;;;;;;;;;;;;;;;6.58;92.26;101281.42;85839;1301;82343;-57
2022/10/27 00:09:13;;;;;;;;;;;;;;;6.60;92.16;101280.69;85863;1293;81889;-58
2022/10/27 00:11:24;;;;;;;;;;;;;;;6.69;92.62;101278.90;85847;1300;99034;-58
2022/10/27 00:13:31;;;;;;;;;;;;;;;6.89;93.03;101276.10;85814;1300;88442;-58
2022/10/27 00:15:39;;;;;;;;;;;;;;;7.03;93.37;101279.99;85846;1299;93733;-58
2022/10/27 00:17:46;;;;;;;;;;;;;;;7.11;93.44;101281.84;85839;1299;82865;-57
2022/10/27 00:19:53;;;;;;;;;;;;;;;7.13;93.14;101280.94;85849;1300;82804;-58
2022/10/27 00:22:00;;;;;;;;;;;;;;;7.13;93.10;101279.35;85868;1302;96485;-58
2022/10/27 00:24:08;;;;;;;;;;;;;;;7.10;93.00;101278.73;85852;1290;86714;-58
2022/10/27 00:26:16;;;;;;;;;;;;;;;7.08;93.03;101279.48;85868;1294;93774;-58
2022/10/27 00:28:23;;;;;;;;;;;;;;;7.04;92.95;101279.32;85881;1299;82470;-58
2022/10/27 00:30:30;;;;;;;;;;;;;;;7.00;92.89;101280.02;85872;1300;81328;-58
2022/10/27 00:32:38;;;;;;;;;;;;;;;6.99;92.98;101285.72;85823;1302;97397;-58
2022/10/27 00:34:45;;;;;;;;;;;;;;;6.97;93.03;101292.50;85866;1300;89026;-57
2022/10/27 00:36:52;;;;;;;;;;;;;;;6.93;92.86;101293.68;85860;1299;93412;-58
2022/10/27 00:39:01;;;;;;;;;;;;;;;6.90;92.84;101298.75;85849;1300;81206;-59
2022/10/27 00:41:09;;;;;;;;;;;;;;;6.91;92.80;101299.02;85875;1299;82845;-58
2022/10/27 00:43:29;;;;;;;;;;;;;;;6.90;92.78;101301.02;85898;1293;96739;-59
2022/10/27 00:45:36;;;;;;;;;;;;;;;6.87;92.75;101304.92;85919;1295;89903;-58
2022/10/27 00:47:44;;;;;;;;;;;;;;;6.83;92.68;101306.35;85885;1299;94770;-58
2022/10/27 00:49:54;;;;;;;;;;;;;;;6.81;92.50;101304.46;85866;1295;82092;-59
2022/10/27 00:52:05;;;;;;;;;;;;;;;6.79;92.53;101303.17;85901;1301;82236;-57
2022/10/27 00:54:13;;;;;;;;;;;;;;;6.76;92.41;101306.16;85873;1294;97656;-57
2022/10/27 00:56:21;;;;;;;;;;;;;;;6.73;92.40;101305.93;85889;1301;86746;-58
2022/10/27 00:58:28;;;;;;;;;;;;;;;6.71;92.37;101306.08;85839;1300;95357;-58
2022/10/27 01:00:37;;;;;;;;;;;;;;;6.70;92.50;101304.09;85875;1295;82226;-58
2022/10/27 01:02:46;;;;;;;;;;;;;;;6.72;92.58;101303.50;85840;1295;81552;-58
2022/10/27 01:04:57;;;;;;;;;;;;;;;6.73;92.58;101300.02;85828;1289;98929;-58
2022/10/27 01:07:04;;;;;;;;;;;;;;;6.73;92.64;101303.61;85838;1299;89401;-57
2022/10/27 01:09:15;;;;;;;;;;;;;;;6.75;92.77;101301.10;85830;1300;95137;-57
2022/10/27 01:11:22;;;;;;;;;;;;;;;6.75;92.86;101298.41;85853;1295;80933;-58
2022/10/27 01:13:29;;;;;;;;;;;;;;;6.74;92.61;101298.28;85842;1295;83090;-57
2022/10/27 01:15:42;;;;;;;;;;;;;;;6.72;92.57;101296.39;85839;1302;97098;-58
2022/10/27 01:17:54;;;;;;;;;;;;;;;6.66;92.58;101294.36;85859;1302;88497;-58
2022/10/27 01:20:35;;;;;;;;;;;;;;;6.61;92.78;101295.55;85787;1294;96432;-58
2022/10/27 01:22:45;;;;;;;;;;;;;;;6.58;92.63;101291.92;85865;1301;80797;-58
2022/10/27 01:25:21;;;;;;;;;;;;;;;6.52;92.57;101294.20;85899;1298;82618;-58
2022/10/27 01:27:50;;;;;;;;;;;;;;;6.52;92.68;101287.04;85909;1293;96784;-59
2022/10/27 01:30:16;;;;;;;;;;;;;;;6.53;92.76;101282.13;85881;1300;89319;-59
2022/10/27 01:32:29;;;;;;;;;;;;;;;6.51;92.66;101281.39;85893;1294;95802;-58
2022/10/27 01:34:41;;;;;;;;;;;;;;;6.51;92.74;101280.23;85892;1299;81697;-58
2022/10/27 01:36:53;;;;;;;;;;;;;;;6.51;92.70;101278.56;85893;1301;81017;-58
2022/10/27 01:39:05;;;;;;;;;;;;;;;6.51;92.83;101280.91;85863;1300;97765;-57
2022/10/27 01:41:16;;;;;;;;;;;;;;;6.52;92.74;101282.47;85889;1301;88166;-58
2022/10/27 01:43:26;;;;;;;;;;;;;;;6.54;92.87;101277.44;85846;1300;94625;-58
2022/10/27 01:45:38;;;;;;;;;;;;;;;6.54;92.84;101283.66;85866;1300;81656;-58
2022/10/27 01:47:45;;;;;;;;;;;;;;;6.54;92.89;101288.84;85846;1299;81911;-57
2022/10/27 01:49:53;;;;;;;;;;;;;;;6.58;92.93;101286.79;85887;1300;97925;-58
2022/10/27 01:52:08;;;;;;;;;;;;;;;6.66;93.08;101287.09;85868;1293;88286;-58
2022/10/27 01:54:20;;;;;;;;;;;;;;;6.65;93.00;101287.13;85822;1300;96085;-59
2022/10/27 01:56:49;;;;;;;;;;;;;;;6.61;92.91;101286.95;85826;1301;79854;-58
2022/10/27 01:59:10;;;;;;;;;;;;;;;6.58;92.88;101286.94;85847;1294;82768;-57
2022/10/27 02:01:34;;;;;;;;;;;;;;;6.57;93.01;101294.36;85863;1299;98415;-58
2022/10/27 02:03:46;;;;;;;;;;;;;;;6.55;92.94;101295.56;85843;1300;87272;-57
2022/10/27 02:06:01;;;;;;;;;;;;;;;6.56;93.02;101289.61;85852;1300;93488;-56
2022/10/27 02:08:14;;;;;;;;;;;;;;;6.57;93.06;101289.19;85875;1301;80119;-58
2022/10/27 02:10:24;;;;;;;;;;;;;;;6.54;92.86;101286.33;85852;1294;82479;-58
2022/10/27 02:12:36;;;;;;;;;;;;;;;6.52;92.85;101292.64;85853;1301;98303;-59
2022/10/27 02:14:44;;;;;;;;;;;;;;;6.49;92.94;101292.70;85866;1301;89729;-57
2022/10/27 02:16:54;;;;;;;;;;;;;;;6.45;92.94;101292.17;85900;1294;95209;-58
2022/10/27 02:19:05;;;;;;;;;;;;;;;6.41;92.73;101291.30;85908;1301;80904;-58
2022/10/27 02:21:15;;;;;;;;;;;;;;;6.38;92.62;101290.40;85886;1295;82420;-57
2022/10/27 02:23:23;;;;;;;;;;;;;;;6.34;92.77;101297.40;85843;1300;98220;-58
2022/10/27 02:25:36;;;;;;;;;;;;;;;6.33;92.74;101298.52;85879;1301;89185;-58
2022/10/27 02:27:48;;;;;;;;;;;;;;;6.33;92.65;101295.12;85831;1300;93244;-57
2022/10/27 02:29:57;;;;;;;;;;;;;;;6.32;92.71;101298.61;85870;1294;81575;-57
2022/10/27 02:32:10;;;;;;;;;;;;;;;6.31;92.74;101300.02;85862;1301;80144;-59
2022/10/27 02:34:17;;;;;;;;;;;;;;;6.31;92.75;101298.70;85826;1300;97916;-58
2022/10/27 02:36:26;;;;;;;;;;;;;;;6.31;92.98;101301.55;85852;1300;88032;-57
2022/10/27 02:38:33;;;;;;;;;;;;;;;6.33;92.85;101307.66;85847;1296;94833;-56
2022/10/27 02:40:40;;;;;;;;;;;;;;;6.36;93.04;101307.02;85859;1300;81718;-58
2022/10/27 02:42:48;;;;;;;;;;;;;;;6.37;93.10;101309.78;85888;1301;82569;-58
2022/10/27 02:44:55;;;;;;;;;;;;;;;6.37;93.10;101312.23;85870;1295;98943;-57
2022/10/27 02:47:02;;;;;;;;;;;;;;;6.37;93.12;101312.63;85897;1300;87622;-58
2022/10/27 02:49:09;;;;;;;;;;;;;;;6.35;92.87;101310.17;85901;1301;95159;-58
2022/10/27 02:51:16;;;;;;;;;;;;;;;6.31;92.83;101312.46;85862;1301;81571;-57
2022/10/27 02:53:23;;;;;;;;;;;;;;;6.28;92.86;101318.50;85940;1300;82407;-58
2022/10/27 02:55:31;;;;;;;;;;;;;;;6.24;92.81;101320.80;85911;1294;99495;-57
2022/10/27 02:57:39;;;;;;;;;;;;;;;6.23;92.80;101320.95;85858;1301;88022;-58
2022/10/27 02:59:47;;;;;;;;;;;;;;;6.18;92.76;101322.77;85833;1295;93306;-57
2022/10/27 03:01:54;;;;;;;;;;;;;;;6.16;92.96;101326.58;85895;1300;82094;-58
2022/10/27 03:04:03;;;;;;;;;;;;;;;6.14;92.88;101328.87;85867;1294;80596;-58
2022/10/27 03:06:11;;;;;;;;;;;;;;;6.10;92.74;101331.80;85870;1301;99279;-58
2022/10/27 03:08:18;;;;;;;;;;;;;;;6.08;92.80;101331.11;85835;1293;87564;-58
2022/10/27 03:10:26;;;;;;;;;;;;;;;6.06;92.79;101332.29;85836;1293;93100;-58
2022/10/27 03:12:35;;;;;;;;;;;;;;;6.03;92.75;101330.83;85832;1301;83288;-58
2022/10/27 03:14:43;;;;;;;;;;;;;;;6.01;92.78;101324.06;85867;1293;83613;-58
2022/10/27 03:16:50;;;;;;;;;;;;;;;5.97;92.89;101325.66;85835;1294;99153;-57
2022/10/27 03:18:58;;;;;;;;;;;;;;;5.96;92.83;101327.11;85718;1304;87796;-58
2022/10/27 03:21:08;;;;;;;;;;;;;;;5.98;92.90;101326.42;85838;1300;94566;-58
2022/10/27 03:23:15;;;;;;;;;;;;;;;5.98;92.86;101326.58;85819;1301;82339;-57
2022/10/27 03:25:22;;;;;;;;;;;;;;;5.99;92.69;101328.46;85849;1301;80867;-58
2022/10/27 03:27:29;;;;;;;;;;;;;;;5.93;92.70;101325.23;85836;1300;97938;-57
2022/10/27 03:29:36;;;;;;;;;;;;;;;5.88;92.72;101324.80;85822;1301;88972;-59
2022/10/27 03:31:43;;;;;;;;;;;;;;;5.85;92.73;101328.26;85858;1300;94176;-57
2022/10/27 03:33:50;;;;;;;;;;;;;;;5.86;92.72;101333.02;85878;1293;80676;-58
2022/10/27 03:35:58;;;;;;;;;;;;;;;5.83;92.83;101334.55;85909;1301;82882;-57
2022/10/27 03:38:06;;;;;;;;;;;;;;;5.82;92.77;101332.00;85879;1294;98618;-56
2022/10/27 03:40:15;;;;;;;;;;;;;;;5.77;92.57;101333.79;85883;1293;87527;-58
2022/10/27 03:42:22;;;;;;;;;;;;;;;5.75;92.62;101330.22;85885;1293;94839;-57
2022/10/27 03:44:32;;;;;;;;;;;;;;;5.74;92.70;101326.19;85870;1301;81014;-58
2022/10/27 03:46:39;;;;;;;;;;;;;;;5.72;92.81;101327.80;85885;1300;82140;-58
2022/10/27 03:48:47;;;;;;;;;;;;;;;5.70;92.70;101329.23;85877;1285;98905;-58
2022/10/27 03:50:54;;;;;;;;;;;;;;;5.68;92.84;101332.48;85865;1300;87807;-57
2022/10/27 03:53:03;;;;;;;;;;;;;;;5.68;92.63;101336.76;85864;1301;95637;-57
2022/10/27 03:55:10;;;;;;;;;;;;;;;5.66;92.70;101340.54;85721;1304;84247;-58
2022/10/27 03:57:18;;;;;;;;;;;;;;;5.63;92.69;101336.89;85846;1293;82715;-57
2022/10/27 03:59:33;;;;;;;;;;;;;;;5.58;92.68;101339.29;85841;1299;97706;-57
2022/10/27 04:01:41;;;;;;;;;;;;;;;5.58;92.60;101343.20;85856;1295;87795;-58
2022/10/27 04:03:50;;;;;;;;;;;;;;;5.57;92.73;101343.15;85828;1286;94961;-57
2022/10/27 04:06:00;;;;;;;;;;;;;;;5.54;92.83;101340.15;85839;1300;81922;-58
2022/10/27 04:08:09;;;;;;;;;;;;;;;5.52;92.72;101343.91;85829;1301;82387;-58
2022/10/27 04:10:17;;;;;;;;;;;;;;;5.48;92.61;101344.83;85870;1301;98958;-58
2022/10/27 04:12:25;;;;;;;;;;;;;;;5.44;92.66;101335.71;85874;1299;88957;-57
2022/10/27 04:14:32;;;;;;;;;;;;;;;5.43;92.71;101338.31;85847;1293;95362;-58
2022/10/27 04:16:40;;;;;;;;;;;;;;;5.45;93.01;101337.98;85903;1300;82258;-58
2022/10/27 04:18:47;;;;;;;;;;;;;;;5.48;92.82;101345.92;85894;1300;82677;-58
2022/10/27 04:20:59;;;;;;;;;;;;;;;5.48;92.85;101342.34;85889;1301;99569;-58
2022/10/27 04:23:08;;;;;;;;;;;;;;;5.47;92.84;101338.44;85896;1293;89060;-58
2022/10/27 04:25:18;;;;;;;;;;;;;;;5.43;92.72;101341.56;85889;1300;96435;-58
2022/10/27 04:27:25;;;;;;;;;;;;;;;5.43;92.75;101341.55;85843;1295;82100;-57
2022/10/27 04:29:34;;;;;;;;;;;;;;;5.43;92.73;101342.43;85864;1294;83264;-58
2022/10/27 04:31:41;;;;;;;;;;;;;;;5.42;92.74;101343.72;85897;1301;97918;-64
2022/10/27 04:33:48;;;;;;;;;;;;;;;5.41;92.92;101341.50;85849;1294;85534;-57
2022/10/27 04:35:55;;;;;;;;;;;;;;;5.39;92.86;101340.59;85847;1293;95142;-57
2022/10/27 04:38:04;;;;;;;;;;;;;;;5.40;92.83;101337.98;85856;1300;81923;-57
2022/10/27 04:40:13;;;;;;;;;;;;;;;5.45;93.10;101338.52;85857;1301;81548;-58
2022/10/27 04:42:20;;;;;;;;;;;;;;;5.53;93.14;101339.55;85861;1293;98530;-58
2022/10/27 04:44:27;;;;;;;;;;;;;;;5.61;93.58;101341.20;85824;1294;86363;-60
2022/10/27 04:46:36;;;;;;;;;;;;;;;5.70;93.70;101342.67;85859;1300;95481;-57
2022/10/27 04:48:43;;;;;;;;;;;;;;;5.72;93.59;101343.35;85818;1301;82268;-57
2022/10/27 04:50:52;;;;;;;;;;;;;;;5.71;93.43;101350.40;85848;1297;82763;-58
2022/10/27 04:53:02;;;;;;;;;;;;;;;5.71;93.35;101351.70;85888;1300;97983;-58
2022/10/27 04:55:19;;;;;;;;;;;;;;;5.71;93.40;101351.66;85855;1293;86624;-58
2022/10/27 04:57:29;;;;;;;;;;;;;;;5.71;93.20;101349.59;85842;1301;94555;-58
2022/10/27 04:59:36;;;;;;;;;;;;;;;5.68;93.21;101353.24;85864;1300;82015;-57
2022/10/27 05:01:46;;;;;;;;;;;;;;;5.64;93.15;101354.79;85854;1294;81687;-58
2022/10/27 05:03:54;;;;;;;;;;;;;;;5.61;93.18;101359.95;85880;1285;98486;-59
2022/10/27 05:06:05;;;;;;;;;;;;;;;5.61;93.26;101361.20;85890;1301;87175;-58
2022/10/27 05:08:14;;;;;;;;;;;;;;;5.60;93.34;101360.16;85917;1294;95218;-58
2022/10/27 05:10:21;;;;;;;;;;;;;;;5.57;93.17;101365.08;85886;1301;80901;-59
2022/10/27 05:12:28;;;;;;;;;;;;;;;5.56;93.01;101366.46;85910;1300;81251;-59
2022/10/27 05:14:36;;;;;;;;;;;;;;;5.56;93.11;101368.96;85890;1295;100210;-58
2022/10/27 05:16:43;;;;;;;;;;;;;;;5.53;92.86;101368.80;85907;1300;88201;-58
2022/10/27 05:18:51;;;;;;;;;;;;;;;5.50;92.93;101373.75;85878;1295;95416;-58
2022/10/27 05:21:00;;;;;;;;;;;;;;;5.46;93.00;101376.94;85869;1297;79855;-57
2022/10/27 05:23:10;;;;;;;;;;;;;;;5.45;92.92;101377.81;85838;1295;82197;-57
2022/10/27 05:25:19;;;;;;;;;;;;;;;5.44;92.94;101378.60;85838;1293;96628;-58
2022/10/27 05:27:26;;;;;;;;;;;;;;;5.45;93.10;101380.47;85862;1301;89153;-58
2022/10/27 05:29:35;;;;;;;;;;;;;;;5.44;92.80;101381.64;85864;1293;95759;-59
2022/10/27 05:31:42;;;;;;;;;;;;;;;5.42;92.85;101379.30;85833;1300;80691;-58
2022/10/27 05:33:49;;;;;;;;;;;;;;;5.37;92.95;101382.19;85817;1293;81307;-57
2022/10/27 05:35:57;;;;;;;;;;;;;;;5.35;93.02;101388.93;85866;1294;99109;-57
2022/10/27 05:38:06;;;;;;;;;;;;;;;5.36;93.12;101389.81;85829;1299;89211;-58
2022/10/27 05:40:17;;;;;;;;;;;;;;;5.38;93.10;101393.91;85819;1293;95417;-58
2022/10/27 05:42:25;;;;;;;;;;;;;;;5.38;93.25;101391.36;85886;1301;80387;-59
2022/10/27 05:44:34;;;;;;;;;;;;;;;5.42;93.26;101391.27;85860;1287;82336;-57
2022/10/27 05:46:42;;;;;;;;;;;;;;;5.44;93.22;101389.98;85880;1293;97023;-58
2022/10/27 05:48:49;;;;;;;;;;;;;;;5.51;93.35;101393.51;85863;1300;86566;-58
2022/10/27 05:50:58;;;;;;;;;;;;;;;5.54;93.33;101397.55;85763;1303;94046;-58
2022/10/27 05:53:05;;;;;;;;;;;;;;;5.57;93.54;101397.77;85894;1294;81139;-57
2022/10/27 05:55:14;;;;;;;;;;;;;;;5.63;93.45;101399.75;85841;1294;82352;-57
2022/10/27 05:57:22;;;;;;;;;;;;;;;5.71;93.59;101398.89;85838;1296;97772;-59
2022/10/27 05:59:35;;;;;;;;;;;;;;;5.79;93.77;101398.89;85846;1295;88329;-59
2022/10/27 06:01:43;;;;;;;;;;;;;;;5.90;93.77;101403.48;85884;1299;94013;-58
2022/10/27 06:03:50;;;;;;;;;;;;;;;6.03;94.05;101399.81;85880;1301;81114;-58
2022/10/27 06:05:58;;;;;;;;;;;;;;;6.15;94.17;101405.87;85877;1293;82699;-59
2022/10/27 06:08:06;;;;;;;;;;;;;;;6.28;94.24;101414.34;85841;1293;99332;-59
2022/10/27 06:10:14;;;;;;;;;;;;;;;6.43;94.43;101412.65;85823;1296;89391;-58
2022/10/27 06:12:22;;;;;;;;;;;;;;;6.60;94.50;101414.00;85856;1293;95051;-59
2022/10/27 06:14:29;;;;;;;;;;;;;;;6.75;94.47;101412.41;85809;1301;82454;-58
2022/10/27 06:16:37;;;;;;;;;;;;;;;6.91;94.65;101412.58;85827;1301;80552;-57
2022/10/27 06:18:44;;;;;;;;;;;;;;;7.11;94.79;101416.95;85844;1286;99045;-57
2022/10/27 06:20:54;;;;;;;;;;;;;;;7.25;94.98;101415.77;85845;1300;87687;-58
2022/10/27 06:23:03;;;;;;;;;;;;;;;7.41;94.99;101419.66;85848;1293;94569;-58
2022/10/27 06:25:11;;;;;;;;;;;;;;;7.53;94.88;101421.53;85841;1293;82585;-57
2022/10/27 06:27:19;;;;;;;;;;;;;;;7.62;94.94;101422.62;85897;1294;82733;-58
2022/10/27 06:29:26;;;;;;;;;;;;;;;7.76;94.93;101423.85;85871;1294;96866;-57
2022/10/27 06:31:33;;;;;;;;;;;;;;;7.87;94.78;101419.71;85895;1300;87528;-59
2022/10/27 06:33:41;;;;;;;;;;;;;;;7.96;94.79;101423.90;85880;1300;94398;-60
2022/10/27 06:35:49;;;;;;;;;;;;;;;7.99;94.82;101426.84;85528;1294;494279;-59
2022/10/27 06:37:58;;;;;;;;;;;;;;;8.03;94.72;101425.45;85921;1296;81267;-58
2022/10/27 06:40:11;;;;;;;;;;;;;;;8.14;94.74;101431.55;85944;1293;99294;-59
2022/10/27 06:42:21;;;;;;;;;;;;;;;8.22;94.72;101430.27;85878;1294;87469;-59
2022/10/27 06:44:29;;;;;;;;;;;;;;;8.28;94.67;101429.48;85877;1295;94357;-58
2022/10/27 06:46:38;;;;;;;;;;;;;;;8.41;94.77;101433.84;85872;1300;81083;-59
2022/10/27 06:48:45;;;;;;;;;;;;;;;8.51;94.86;101436.20;85868;1301;83103;-57
2022/10/27 06:50:53;;;;;;;;;;;;;;;8.64;95.07;101437.20;85841;1301;98893;-60
2022/10/27 06:53:02;;;;;;;;;;;;;;;8.80;95.15;101441.35;85848;1299;86635;-57
2022/10/27 06:55:10;;;;;;;;;;;;;;;8.91;95.24;101439.77;85851;1294;94324;-58
2022/10/27 06:57:19;;;;;;;;;;;;;;;9.05;95.37;101439.09;85862;1293;79638;-58
2022/10/27 06:59:26;;;;;;;;;;;;;;;9.17;95.42;101440.86;85805;1301;80037;-59
2022/10/27 07:01:36;;;;;;;;;;;;;;;9.31;95.25;101443.19;85834;1292;99258;-57
2022/10/27 07:03:43;;;;;;;;;;;;;;;9.43;95.28;101440.52;85882;1293;88252;-57
2022/10/27 07:05:52;;;;;;;;;;;;;;;9.55;95.28;101441.86;85845;1300;94784;-59
2022/10/27 07:07:59;;;;;;;;;;;;;;;9.64;95.16;101441.02;85850;1293;81707;-58
2022/10/27 07:10:08;;;;;;;;;;;;;;;9.74;95.08;101442.30;85844;1293;83173;-58
2022/10/27 07:12:15;;;;;;;;;;;;;;;9.88;95.09;101442.89;85856;1294;96718;-57
2022/10/27 07:14:23;;;;;;;;;;;;;;;10.02;95.16;101439.61;85852;1295;88652;-58
2022/10/27 07:16:31;;;;;;;;;;;;;;;10.16;95.26;101442.06;85917;1293;94815;-58
2022/10/27 07:18:38;;;;;;;;;;;;;;;10.38;95.11;101445.89;85795;1302;79088;-58
2022/10/27 07:20:47;;;;;;;;;;;;;;;10.55;95.05;101448.85;85900;1300;81999;-59
2022/10/27 07:22:54;;;;;;;;;;;;;;;10.71;94.99;101451.71;85905;1294;98364;-58
2022/10/27 07:25:02;;;;;;;;;;;;;;;10.85;94.93;101456.21;85875;1294;89091;-59
2022/10/27 07:27:09;;;;;;;;;;;;;;;11.06;94.78;101455.74;85916;1294;95984;-59
2022/10/27 07:29:17;;;;;;;;;;;;;;;11.31;94.76;101455.33;85886;1294;79914;-59
2022/10/27 07:31:27;;;;;;;;;;;;;;;11.71;94.59;101459.51;85890;1293;82478;-57
2022/10/27 07:33:39;;;;;;;;;;;;;;;12.04;94.25;101454.35;85756;1296;99610;-58
2022/10/27 07:35:50;;;;;;;;;;;;;;;12.60;94.22;101454.37;85858;1296;87235;-58
2022/10/27 07:38:00;;;;;;;;;;;;;;;14.14;94.26;101454.86;85825;1300;94200;-59
2022/10/27 07:40:10;;;;;;;;;;;;;;;15.70;93.04;101459.45;85827;1302;82425;-58
2022/10/27 07:42:17;;;;;;;;;;;;;;;16.86;91.38;101455.02;85877;1296;83386;-58
2022/10/27 07:44:25;;;;;;;;;;;;;;;17.91;89.44;101458.00;85818;1302;98364;-59
2022/10/27 07:46:33;;;;;;;;;;;;;;;18.73;87.40;101456.77;85850;1297;87185;-60
2022/10/27 07:48:40;;;;;;;;;;;;;;;19.35;85.63;101462.23;85789;1296;94406;-60
2022/10/27 07:50:48;;;;;;;;;;;;;;;19.89;84.14;101461.32;85848;1299;80798;-60
2022/10/27 07:52:58;;;;;;;;;;;;;;;20.32;82.94;101462.92;85814;1302;82487;-60
2022/10/27 07:55:10;;;;;;;;;;;;;;;20.44;82.21;101460.38;85851;1288;97559;-60
2022/10/27 07:57:18;;;;;;;;;;;;;;;20.91;80.76;101462.09;85871;1296;88940;-60
2022/10/27 07:59:25;;;;;;;;;;;;;;;21.21;79.43;101465.23;85817;1296;94827;-60
2022/10/27 08:01:35;;;;;;;;;;;;;;;20.85;78.86;101465.59;85854;1302;80918;-59
2022/10/27 08:03:42;;;;;;;;;;;;;;;20.17;78.62;101471.25;85880;1296;81793;-59
2022/10/27 08:05:49;;;;;;;;;;;;;;;19.76;78.70;101474.22;85867;1295;97806;-60
2022/10/27 08:08:00;;;;;;;;;;;;;;;19.34;77.93;101477.08;85815;1295;88732;-60
2022/10/27 08:10:09;;;;;;;;;;;;;;;18.78;77.49;101476.56;85841;1296;95067;-61
2022/10/27 08:12:16;;;;;;;;;;;;;;;18.13;77.41;101482.63;85845;1296;78102;-59
2022/10/27 08:14:23;;;;;;;;;;;;;;;17.49;77.58;101483.98;85829;1294;82394;-59
2022/10/27 08:16:30;;;;;;;;;;;;;;;17.05;77.73;101484.52;85850;1299;98744;-61
2022/10/27 08:18:38;;;;;;;;;;;;;;;16.66;77.89;101483.01;85827;1294;87971;-59
2022/10/27 08:20:47;;;;;;;;;;;;;;;16.34;78.10;101487.80;85846;1296;95345;-60
2022/10/27 08:23:05;;;;;;;;;;;;;;;16.05;78.44;101489.99;85837;1295;80893;-59
2022/10/27 08:25:13;;;;;;;;;;;;;;;15.76;78.98;101489.41;85865;1296;82950;-60
2022/10/27 08:27:24;;;;;;;;;;;;;;;15.74;79.24;101490.86;85853;1299;98785;-58
2022/10/27 08:29:34;;;;;;;;;;;;;;;15.73;79.33;101491.08;85828;1295;89026;-60
2022/10/27 08:31:41;;;;;;;;;;;;;;;15.52;79.85;101487.67;85841;1297;94903;-61
2022/10/27 08:33:49;;;;;;;;;;;;;;;15.33;80.21;101486.84;85869;1300;79745;-60
2022/10/27 08:35:56;;;;;;;;;;;;;;;15.19;80.61;101487.45;85869;1300;81649;-60
2022/10/27 08:38:05;;;;;;;;;;;;;;;15.10;81.14;101489.52;85812;1302;96445;-60
2022/10/27 08:40:15;;;;;;;;;;;;;;;15.01;81.13;101487.57;85845;1302;88731;-60
2022/10/27 08:42:35;;;;;;;;;;;;;;;14.93;81.43;101486.85;85852;1302;92955;-59
2022/10/27 08:44:46;;;;;;;;;;;;;;;14.91;81.68;101485.23;85819;1302;80442;-58
2022/10/27 08:47:02;;;;;;;;;;;;;;;14.94;82.07;101485.09;85857;1296;82531;-60
2022/10/27 08:49:19;;;;;;;;;;;;;;;15.03;82.25;101486.21;85822;1302;98913;-58
2022/10/27 08:51:28;;;;;;;;;;;;;;;15.11;82.42;101482.37;85852;1296;85860;-60
2022/10/27 08:53:37;;;;;;;;;;;;;;;15.33;82.71;101484.83;85799;1299;94841;-59
2022/10/27 08:55:52;;;;;;;;;;;;;;;15.77;82.70;101484.64;85861;1296;78635;-60
2022/10/27 08:58:03;;;;;;;;;;;;;;;16.28;81.88;101484.81;85867;1296;81522;-60
2022/10/27 09:00:16;;;;;;;;;;;;;;;16.66;81.59;101478.55;85827;1296;98637;-60
2022/10/27 09:02:50;;;;;;;;;;;;;;;17.18;81.34;101480.64;85851;1296;88176;-61
2022/10/27 09:05:19;;;;;;;;;;;;;;;17.93;80.66;101481.89;85839;1296;94492;-60
2022/10/27 09:07:36;;;;;;;;;;;;;;;18.68;80.42;101477.46;85864;1302;79940;-60
2022/10/27 09:09:51;;;;;;;;;;;;;;;19.36;79.64;101483.02;85900;1296;82962;-60
2022/10/27 09:12:09;;;;;;;;;;;;;;;19.99;78.42;101483.89;85873;1297;99123;-60
2022/10/27 09:14:52;;;;;;;;;;;;;;;20.37;76.93;101487.39;85847;1299;88677;-59
2022/10/27 09:17:03;;;;;;;;;;;;;;;20.84;75.95;101484.80;85847;1296;95262;-62
2022/10/27 09:19:15;;;;;;;;;;;;;;;21.21;75.21;101482.04;85814;1296;79952;-61
2022/10/27 09:21:26;;;;;;;;;;;;;;;21.55;73.98;101486.49;85842;1304;82009;-61
2022/10/27 09:23:37;;;;;;;;;;;;;;;21.94;73.19;101486.81;85831;1294;97894;-60
2022/10/27 09:25:50;;;;;;;;;;;;;;;22.31;72.54;101491.37;85848;1300;87940;-60
2022/10/27 09:27:59;;;;;;;;;;;;;;;22.59;71.33;101487.84;85843;1302;95677;-60
2022/10/27 09:30:14;;;;;;;;;;;;;;;22.78;70.93;101489.38;85843;1296;81439;-61
2022/10/27 09:32:23;;;;;;;;;;;;;;;22.94;70.11;101483.40;85904;1288;82928;-62
2022/10/27 09:34:36;;;;;;;;;;;;;;;23.10;68.62;101483.70;85888;1294;97805;-61
2022/10/27 09:36:46;;;;;;;;;;;;;;;23.03;68.19;101482.14;85936;1299;87280;-60
2022/10/27 09:38:53;;;;;;;;;;;;;;;23.24;67.69;101477.27;85903;1296;94383;-59
2022/10/27 09:41:01;;;;;;;;;;;;;;;23.39;67.12;101481.06;85903;1296;78695;-60
2022/10/27 09:43:10;;;;;;;;;;;;;;;23.60;66.64;101474.81;85855;1297;83294;-60
2022/10/27 09:45:22;;;;;;;;;;;;;;;23.50;65.94;101476.95;85868;1296;98218;-59
2022/10/27 09:47:35;;;;;;;;;;;;;;;23.19;65.54;101477.65;85868;1296;89201;-60
2022/10/27 09:49:45;;;;;;;;;;;;;;;22.91;65.43;101478.48;85838;1296;93900;-60
2022/10/27 09:51:55;;;;;;;;;;;;;;;22.65;64.32;101479.80;85870;1296;81203;-59
2022/10/27 09:54:04;;;;;;;;;;;;;;;22.15;64.23;101481.96;85821;1296;82935;-59
2022/10/27 09:56:14;;;;;;;;;;;;;;;21.73;64.71;101482.32;85808;1297;100371;-59
2022/10/27 09:58:22;;;;;;;;;;;;;;;21.36;65.03;101481.58;85864;1296;87953;-63
2022/10/27 10:00:30;;;;;;;;;;;;;;;20.93;65.45;101483.96;85847;1299;93468;-61
2022/10/27 10:02:40;;;;;;;;;;;;;;;20.67;65.97;101486.81;85831;1296;80456;-60
2022/10/27 10:04:47;;;;;;;;;;;;;;;20.35;66.19;101487.94;85845;1287;80984;-59
2022/10/27 10:06:59;;;;;;;;;;;;;;;20.10;66.64;101491.31;85933;1294;98465;-60
2022/10/27 10:09:24;;;;;;;;;;;;;;;19.82;66.87;101488.98;85855;1296;88877;-60
2022/10/27 10:11:32;;;;;;;;;;;;;;;19.58;67.29;101491.49;85890;1302;95698;-60
2022/10/27 10:13:56;;;;;;;;;;;;;;;19.32;67.53;101492.27;85879;1296;79991;-60
2022/10/27 10:16:12;;;;;;;;;;;;;;;19.06;67.75;101495.31;85871;1296;81366;-60
2022/10/27 10:18:26;;;;;;;;;;;;;;;18.84;67.93;101493.94;85840;1291;98490;-60
2022/10/27 10:20:36;;;;;;;;;;;;;;;18.66;68.37;101491.01;85888;1296;86512;-60
2022/10/27 10:22:43;;;;;;;;;;;;;;;18.54;68.96;101493.37;85818;1302;95242;-60
2022/10/27 10:24:54;;;;;;;;;;;;;;;18.41;68.80;101491.63;85819;1296;80338;-61
2022/10/27 10:27:04;;;;;;;;;;;;;;;18.31;69.02;101493.55;85858;1300;82464;-58
2022/10/27 10:29:26;;;;;;;;;;;;;;;18.15;69.20;101499.08;85819;1296;97362;-59
2022/10/27 10:31:33;;;;;;;;;;;;;;;17.98;69.40;101493.63;85855;1299;87703;-59
2022/10/27 10:33:42;;;;;;;;;;;;;;;17.89;69.73;101492.36;85837;1295;94340;-59
2022/10/27 10:35:51;;;;;;;;;;;;;;;17.84;70.05;101489.55;85883;1295;80702;-60
2022/10/27 10:38:02;;;;;;;;;;;;;;;17.76;70.05;101484.21;85837;1296;83053;-59
2022/10/27 10:40:31;;;;;;;;;;;;;;;17.72;70.37;101481.70;85852;1294;98616;-60
2022/10/27 10:42:44;;;;;;;;;;;;;;;17.69;70.74;101481.05;85896;1297;87514;-59
2022/10/27 10:45:09;;;;;;;;;;;;;;;17.71;71.03;101479.59;85861;1300;94308;-61
2022/10/27 10:47:27;;;;;;;;;;;;;;;17.62;71.16;101472.00;85930;1302;79696;-59
2022/10/27 10:49:38;;;;;;;;;;;;;;;17.53;71.23;101475.06;85864;1296;82082;-58
2022/10/27 10:51:50;;;;;;;;;;;;;;;17.53;71.54;101475.31;85876;1297;98699;-59
2022/10/27 10:54:04;;;;;;;;;;;;;;;17.53;71.72;101477.59;85832;1301;88751;-60
2022/10/27 10:56:24;;;;;;;;;;;;;;;17.49;71.67;101480.88;85775;1297;95713;-59
2022/10/27 10:58:33;;;;;;;;;;;;;;;17.48;71.79;101484.69;85840;1304;79133;-59
2022/10/27 11:00:51;;;;;;;;;;;;;;;17.39;71.95;101485.32;85825;1304;82561;-59
2022/10/27 11:03:02;;;;;;;;;;;;;;;17.30;71.74;101482.56;85833;1296;97696;-59
2022/10/27 11:05:22;;;;;;;;;;;;;;;17.26;71.86;101476.83;85858;1296;88113;-59
2022/10/27 11:07:31;;;;;;;;;;;;;;;17.29;72.14;101478.08;85858;1302;93365;-59
2022/10/27 11:09:46;;;;;;;;;;;;;;;17.29;72.32;101478.50;85862;1296;80163;-59
2022/10/27 11:11:58;;;;;;;;;;;;;;;17.30;72.32;101478.56;85902;1296;82830;-59
2022/10/27 11:14:10;;;;;;;;;;;;;;;17.28;72.34;101478.15;85893;1301;98409;-59